createdAt,value
2018-04-28T00:00:01.726Z,11.19
2018-04-28T00:01:01.702Z,11.2
2018-04-28T00:02:01.419Z,11.27
2018-04-28T00:03:01.683Z,11.32
2018-04-28T00:04:01.393Z,11.29
2018-04-28T00:05:01.636Z,11.25
2018-04-28T00:06:01.359Z,11.28
2018-04-28T00:07:01.342Z,11.34
2018-04-28T00:08:01.474Z,11.32
2018-04-28T00:09:01.255Z,11.32
2018-04-28T00:10:01.298Z,11.32
2018-04-28T00:11:01.289Z,11.34
2018-04-28T00:12:01.527Z,11.29
2018-04-28T00:13:01.248Z,11.25
2018-04-28T00:14:00.965Z,11.25
2018-04-28T00:15:01.479Z,11.21
2018-04-28T00:16:01.205Z,11.19
2018-04-28T00:17:01.189Z,11.21
2018-04-28T00:18:01.186Z,11.17
2018-04-28T00:19:01.153Z,11.14
2018-04-28T00:20:01.413Z,11.17
2018-04-28T00:21:01.129Z,11.14
2018-04-28T00:22:01.111Z,11.11
2018-04-28T00:23:01.365Z,11.16
2018-04-28T00:24:00.814Z,11.09
2018-04-28T00:25:01.067Z,11.13
2018-04-28T00:26:00.785Z,11.14
2018-04-28T00:27:01.031Z,11.14
2018-04-28T00:28:00.758Z,11.16
2018-04-28T00:29:01.265Z,11.07
2018-04-28T00:30:00.982Z,11.1
2018-04-28T00:31:00.707Z,11.1
2018-04-28T00:32:01.233Z,11.1
2018-04-28T00:33:00.943Z,11.14
2018-04-28T00:34:00.921Z,11.06
2018-04-28T00:35:00.908Z,11.13
2018-04-28T00:36:00.628Z,11.09
2018-04-28T00:37:01.157Z,11.19
2018-04-28T00:38:00.596Z,11.09
2018-04-28T00:39:00.848Z,11.17
2018-04-28T00:40:00.834Z,11.21
2018-04-28T00:41:00.551Z,11.16
2018-04-28T00:42:00.807Z,11.25
2018-04-28T00:43:01.053Z,11.17
2018-04-28T00:44:00.509Z,11.21
2018-04-28T00:45:00.751Z,11.21
2018-04-28T00:46:00.470Z,11.17
2018-04-28T00:47:00.729Z,11.16
2018-04-28T00:48:00.445Z,11.2
2018-04-28T00:49:00.967Z,11.24
2018-04-28T00:50:01.377Z,11.2
2018-04-28T00:51:00.664Z,11.19
2018-04-28T00:52:00.377Z,11.25
2018-04-28T00:53:00.630Z,11.34
2018-04-28T00:54:00.620Z,11.31
2018-04-28T00:55:00.606Z,11.27
2018-04-28T00:56:00.856Z,11.34
2018-04-28T00:57:00.574Z,11.28
2018-04-28T00:58:00.821Z,11.34
2018-04-28T00:59:00.801Z,11.35
2018-04-28T01:00:00.522Z,11.31
2018-04-28T01:01:00.241Z,11.43
2018-04-28T01:02:00.499Z,11.41
2018-04-28T01:03:00.477Z,11.41
2018-04-28T01:04:00.196Z,11.46
2018-04-28T01:05:00.453Z,11.46
2018-04-28T01:06:00.165Z,11.53
2018-04-28T01:07:00.413Z,11.62
2018-04-28T01:08:00.391Z,11.71
2018-04-28T01:09:00.648Z,11.78
2018-04-28T01:10:00.402Z,11.93
2018-04-28T01:11:00.347Z,11.99
2018-04-28T01:12:00.334Z,12.12
2018-04-28T01:13:00.587Z,12.21
2018-04-28T01:14:00.581Z,12.24
2018-04-28T01:15:00.558Z,12.33
2018-04-28T01:16:00.276Z,12.44
2018-04-28T01:17:00.539Z,12.51
2018-04-28T01:18:00.707Z,12.51
2018-04-28T01:19:00.496Z,12.45
2018-04-28T01:20:00.472Z,12.51
2018-04-28T01:20:59.939Z,12.66
2018-04-28T01:22:00.184Z,12.67
2018-04-28T01:23:00.433Z,12.77
2018-04-28T01:24:00.161Z,12.82
2018-04-28T01:25:00.144Z,12.87
2018-04-28T01:26:00.120Z,12.99
2018-04-28T01:26:59.843Z,13.03
2018-04-28T01:28:00.096Z,13.18
2018-04-28T01:28:59.811Z,13.07
2018-04-28T01:30:00.407Z,13.22
2018-04-28T01:31:00.041Z,13.22
2018-04-28T01:32:00.292Z,13.25
2018-04-28T01:33:00.278Z,13.27
2018-04-28T01:34:00.019Z,13.25
2018-04-28T01:34:59.716Z,13.25
2018-04-28T01:35:59.977Z,13.18
2018-04-28T01:36:59.690Z,13.22
2018-04-28T01:37:59.671Z,13.24
2018-04-28T01:39:00.185Z,13.18
2018-04-28T01:39:59.909Z,13.21
2018-04-28T01:40:59.894Z,13.2
2018-04-28T01:41:59.882Z,13.14
2018-04-28T01:42:59.863Z,13.14
2018-04-28T01:44:00.115Z,13.12
2018-04-28T01:45:00.099Z,13.2
2018-04-28T01:45:59.554Z,13.15
2018-04-28T01:46:59.542Z,13.12
2018-04-28T01:47:59.986Z,13.17
2018-04-28T01:48:59.778Z,13.12
2018-04-28T01:49:59.758Z,13.09
2018-04-28T01:50:59.484Z,13.02
2018-04-28T01:51:59.733Z,13.17
2018-04-28T01:52:59.721Z,13.11
2018-04-28T01:53:59.435Z,13.03
2018-04-28T01:54:59.692Z,13
2018-04-28T01:55:59.682Z,13.02
2018-04-28T01:56:59.924Z,12.93
2018-04-28T01:57:59.376Z,12.85
2018-04-28T01:58:59.362Z,12.84
2018-04-28T01:59:59.613Z,12.88
2018-04-28T02:00:59.865Z,12.87
2018-04-28T02:01:59.316Z,12.79
2018-04-28T02:02:59.311Z,12.82
2018-04-28T02:03:59.827Z,12.69
2018-04-28T02:04:59.537Z,12.7
2018-04-28T02:05:59.785Z,12.66
2018-04-28T02:06:59.777Z,12.66
2018-04-28T02:07:59.758Z,12.6
2018-04-28T02:08:59.749Z,12.59
2018-04-28T02:09:59.728Z,12.56
2018-04-28T02:10:59.729Z,12.52
2018-04-28T02:11:59.698Z,12.49
2018-04-28T02:12:59.423Z,12.59
2018-04-28T02:13:59.669Z,12.57
2018-04-28T02:14:59.396Z,12.48
2018-04-28T02:15:59.636Z,12.56
2018-04-28T02:16:59.097Z,12.6
2018-04-28T02:17:59.351Z,12.49
2018-04-28T02:18:59.602Z,12.48
2018-04-28T02:19:59.315Z,12.51
2018-04-28T02:20:59.304Z,12.63
2018-04-28T02:21:59.293Z,12.46
2018-04-28T02:22:59.269Z,12.52
2018-04-28T02:23:59.247Z,12.48
2018-04-28T02:24:59.236Z,12.54
2018-04-28T02:25:59.222Z,12.49
2018-04-28T02:26:59.206Z,12.48
2018-04-28T02:27:59.198Z,12.51
2018-04-28T02:28:59.455Z,12.46
2018-04-28T02:29:58.899Z,12.46
2018-04-28T02:30:59.158Z,12.45
2018-04-28T02:31:58.873Z,12.46
2018-04-28T02:32:59.387Z,12.52
2018-04-28T02:33:59.114Z,12.39
2018-04-28T02:34:59.089Z,12.44
2018-04-28T02:35:59.341Z,12.34
2018-04-28T02:36:59.334Z,12.34
2018-04-28T02:37:59.052Z,12.34
2018-04-28T02:38:59.319Z,12.33
2018-04-28T02:39:59.015Z,12.33
2018-04-28T02:40:59.264Z,12.34
2018-04-28T02:41:58.982Z,12.31
2018-04-28T02:42:58.970Z,12.39
2018-04-28T02:43:59.220Z,12.41
2018-04-28T02:44:58.671Z,12.41
2018-04-28T02:45:58.657Z,12.34
2018-04-28T02:46:59.193Z,12.33
2018-04-28T02:47:59.276Z,12.38
2018-04-28T02:48:58.618Z,12.38
2018-04-28T02:49:59.115Z,12.37
2018-04-28T02:50:58.583Z,12.39
2018-04-28T02:51:59.108Z,12.38
2018-04-28T02:52:59.090Z,12.37
2018-04-28T02:53:58.799Z,12.44
2018-04-28T02:54:58.805Z,12.39
2018-04-28T02:55:58.787Z,12.44
2018-04-28T02:56:58.759Z,12.34
2018-04-28T02:57:58.745Z,12.34
2018-04-28T02:58:58.732Z,12.46
2018-04-28T02:59:58.714Z,12.41
2018-04-28T03:00:58.959Z,12.39
2018-04-28T03:01:58.681Z,12.41
2018-04-28T03:02:59.133Z,12.39
2018-04-28T03:03:58.656Z,12.48
2018-04-28T03:04:58.642Z,12.34
2018-04-28T03:05:58.625Z,12.37
2018-04-28T03:06:58.875Z,12.41
2018-04-28T03:07:58.326Z,12.37
2018-04-28T03:08:58.584Z,12.31
2018-04-28T03:09:58.296Z,12.34
2018-04-28T03:10:58.552Z,12.37
2018-04-28T03:11:58.542Z,12.39
2018-04-28T03:12:58.787Z,12.24
2018-04-28T03:13:58.239Z,12.23
2018-04-28T03:14:58.551Z,12.26
2018-04-28T03:15:58.733Z,12.24
2018-04-28T03:16:58.720Z,12.26
2018-04-28T03:17:58.549Z,12.3
2018-04-28T03:18:58.434Z,12.19
2018-04-28T03:19:58.722Z,12.21
2018-04-28T03:20:58.396Z,12.21
2018-04-28T03:21:58.380Z,12.2
2018-04-28T03:22:58.428Z,12.27
2018-04-28T03:23:58.637Z,12.16
2018-04-28T03:24:58.069Z,12.2
2018-04-28T03:25:58.318Z,12.19
2018-04-28T03:26:58.568Z,12.15
2018-04-28T03:27:58.292Z,12.24
2018-04-28T03:28:58.273Z,12.2
2018-04-28T03:29:58.255Z,12.21
2018-04-28T03:30:58.505Z,12.26
2018-04-28T03:31:58.234Z,12.26
2018-04-28T03:32:57.947Z,12.24
2018-04-28T03:33:57.931Z,12.23
2018-04-28T03:34:58.185Z,12.21
2018-04-28T03:35:57.902Z,12.24
2018-04-28T03:36:58.420Z,12.26
2018-04-28T03:37:58.402Z,12.29
2018-04-28T03:38:58.125Z,12.24
2018-04-28T03:39:58.100Z,12.29
2018-04-28T03:40:58.349Z,12.26
2018-04-28T03:41:58.332Z,12.31
2018-04-28T03:42:58.333Z,12.3
2018-04-28T03:43:58.043Z,12.34
2018-04-28T03:44:58.022Z,12.41
2018-04-28T03:45:58.278Z,12.39
2018-04-28T03:46:57.726Z,12.39
2018-04-28T03:47:58.244Z,12.3
2018-04-28T03:48:57.967Z,12.3
2018-04-28T03:49:57.684Z,12.33
2018-04-28T03:50:58.015Z,12.41
2018-04-28T03:51:57.920Z,12.31
2018-04-28T03:52:58.170Z,12.31
2018-04-28T03:53:58.159Z,12.3
2018-04-28T03:54:57.869Z,12.39
2018-04-28T03:55:57.871Z,12.38
2018-04-28T03:56:57.841Z,12.38
2018-04-28T03:57:58.097Z,12.33
2018-04-28T03:58:57.544Z,12.33
2018-04-28T03:59:57.793Z,12.42
2018-04-28T04:00:58.046Z,12.44
2018-04-28T04:01:58.032Z,12.37
2018-04-28T04:02:57.748Z,12.38
2018-04-28T04:03:58.005Z,12.37
2018-04-28T04:04:57.982Z,12.34
2018-04-28T04:05:57.437Z,12.33
2018-04-28T04:06:57.687Z,12.38
2018-04-28T04:07:57.936Z,12.3
2018-04-28T04:08:57.398Z,12.37
2018-04-28T04:09:57.647Z,12.24
2018-04-28T04:10:57.886Z,12.23
2018-04-28T04:11:57.628Z,12.2
2018-04-28T04:12:57.605Z,12.23
2018-04-28T04:13:57.580Z,12.24
2018-04-28T04:14:57.563Z,12.29
2018-04-28T04:15:57.601Z,12.2
2018-04-28T04:16:57.269Z,12.3
2018-04-28T04:17:57.519Z,12.21
2018-04-28T04:18:57.780Z,12.19
2018-04-28T04:19:57.488Z,12.21
2018-04-28T04:20:57.735Z,12.21
2018-04-28T04:21:57.721Z,12.26
2018-04-28T04:22:57.466Z,12.2
2018-04-28T04:23:57.698Z,12.29
2018-04-28T04:24:57.408Z,12.29
2018-04-28T04:25:57.399Z,12.24
2018-04-28T04:26:57.455Z,12.26
2018-04-28T04:27:57.627Z,12.37
2018-04-28T04:28:57.698Z,12.34
2018-04-28T04:29:57.596Z,12.37
2018-04-28T04:30:57.315Z,12.33
2018-04-28T04:31:57.038Z,12.38
2018-04-28T04:32:57.021Z,12.39
2018-04-28T04:33:57.271Z,12.44
2018-04-28T04:34:56.988Z,12.38
2018-04-28T04:35:57.243Z,12.39
2018-04-28T04:36:57.230Z,12.33
2018-04-28T04:37:57.210Z,12.37
2018-04-28T04:38:57.190Z,12.37
2018-04-28T04:39:57.173Z,12.41
2018-04-28T04:40:57.180Z,12.39
2018-04-28T04:41:57.413Z,12.45
2018-04-28T04:42:57.386Z,12.39
2018-04-28T04:43:57.129Z,12.49
2018-04-28T04:44:57.367Z,12.46
2018-04-28T04:45:56.815Z,12.41
2018-04-28T04:46:57.070Z,12.51
2018-04-28T04:47:57.326Z,12.46
2018-04-28T04:48:57.310Z,12.56
2018-04-28T04:49:57.227Z,12.52
2018-04-28T04:50:57.016Z,12.48
2018-04-28T04:51:56.992Z,12.51
2018-04-28T04:52:57.241Z,12.42
2018-04-28T04:53:57.233Z,12.51
2018-04-28T04:54:56.945Z,12.45
2018-04-28T04:55:57.192Z,12.51
2018-04-28T04:56:56.916Z,12.52
2018-04-28T04:57:57.177Z,12.54
2018-04-28T04:58:56.886Z,12.6
2018-04-28T04:59:56.875Z,12.62
2018-04-28T05:00:57.220Z,12.62
2018-04-28T05:01:56.844Z,12.62
2018-04-28T05:02:57.099Z,12.63
2018-04-28T05:03:56.551Z,12.6
2018-04-28T05:04:56.796Z,12.59
2018-04-28T05:05:56.773Z,12.69
2018-04-28T05:06:57.039Z,12.59
2018-04-28T05:07:56.485Z,12.64
2018-04-28T05:08:56.997Z,12.67
2018-04-28T05:09:56.755Z,12.67
2018-04-28T05:10:56.979Z,12.78
2018-04-28T05:11:56.950Z,12.75
2018-04-28T05:12:56.671Z,12.78
2018-04-28T05:13:56.932Z,12.89
2018-04-28T05:14:56.380Z,12.89
2018-04-28T05:15:56.361Z,12.87
2018-04-28T05:16:56.610Z,12.96
2018-04-28T05:17:56.872Z,12.97
2018-04-28T05:18:56.576Z,12.96
2018-04-28T05:19:56.571Z,12.97
2018-04-28T05:20:56.816Z,13
2018-04-28T05:21:56.275Z,13.03
2018-04-28T05:22:56.785Z,13.02
2018-04-28T05:23:56.782Z,13.12
2018-04-28T05:24:56.769Z,13.02
2018-04-28T05:25:56.509Z,13.09
2018-04-28T05:26:56.482Z,13.2
2018-04-28T05:27:56.714Z,13.17
2018-04-28T05:28:56.450Z,13.14
2018-04-28T05:29:56.436Z,13.12
2018-04-28T05:30:56.408Z,13.18
2018-04-28T05:31:56.706Z,13.17
2018-04-28T05:32:56.638Z,13.17
2018-04-28T05:33:56.380Z,13.22
2018-04-28T05:34:56.550Z,13.27
2018-04-28T05:35:56.408Z,13.29
2018-04-28T05:36:56.310Z,13.4
2018-04-28T05:37:56.036Z,13.37
2018-04-28T05:38:56.552Z,13.4
2018-04-28T05:39:56.271Z,13.47
2018-04-28T05:40:56.528Z,13.54
2018-04-28T05:41:56.250Z,13.61
2018-04-28T05:42:56.525Z,13.61
2018-04-28T05:43:56.229Z,13.59
2018-04-28T05:44:56.432Z,13.74
2018-04-28T05:45:56.192Z,13.79
2018-04-28T05:46:55.914Z,13.8
2018-04-28T05:47:56.491Z,13.91
2018-04-28T05:48:55.883Z,13.89
2018-04-28T05:49:56.432Z,13.92
2018-04-28T05:50:55.860Z,13.99
2018-04-28T05:51:56.121Z,14.1
2018-04-28T05:52:55.842Z,14.07
2018-04-28T05:53:56.115Z,14.13
2018-04-28T05:54:56.353Z,14.27
2018-04-28T05:55:56.328Z,14.24
2018-04-28T05:56:55.760Z,14.29
2018-04-28T05:57:56.473Z,14.32
2018-04-28T05:58:56.004Z,14.32
2018-04-28T05:59:55.985Z,14.35
2018-04-28T06:00:56.240Z,14.37
2018-04-28T06:01:55.691Z,14.38
2018-04-28T06:02:56.216Z,14.37
2018-04-28T06:03:55.937Z,14.37
2018-04-28T06:04:55.918Z,14.5
2018-04-28T06:05:55.909Z,14.47
2018-04-28T06:06:55.941Z,14.52
2018-04-28T06:07:56.151Z,14.49
2018-04-28T06:08:55.605Z,14.5
2018-04-28T06:09:55.587Z,14.52
2018-04-28T06:10:55.836Z,14.53
2018-04-28T06:11:55.819Z,14.54
2018-04-28T06:12:56.083Z,14.6
2018-04-28T06:13:55.806Z,14.64
2018-04-28T06:14:55.786Z,14.69
2018-04-28T06:15:55.767Z,14.68
2018-04-28T06:16:55.762Z,14.8
2018-04-28T06:17:55.748Z,14.72
2018-04-28T06:18:55.998Z,14.78
2018-04-28T06:19:55.470Z,14.9
2018-04-28T06:20:55.706Z,14.94
2018-04-28T06:21:55.691Z,14.95
2018-04-28T06:22:55.945Z,14.99
2018-04-28T06:23:55.662Z,14.95
2018-04-28T06:24:55.646Z,15.01
2018-04-28T06:25:55.752Z,14.98
2018-04-28T06:26:55.360Z,14.94
2018-04-28T06:27:55.876Z,14.99
2018-04-28T06:28:55.332Z,14.98
2018-04-28T06:29:55.587Z,14.95
2018-04-28T06:30:55.573Z,15.06
2018-04-28T06:31:55.831Z,15.02
2018-04-28T06:32:55.819Z,14.94
2018-04-28T06:33:55.532Z,14.95
2018-04-28T06:34:55.524Z,14.99
2018-04-28T06:35:55.596Z,15.03
2018-04-28T06:36:55.503Z,15.06
2018-04-28T06:37:55.480Z,15.06
2018-04-28T06:38:55.733Z,15.09
2018-04-28T06:39:55.718Z,15.02
2018-04-28T06:40:55.452Z,15.02
2018-04-28T06:41:55.432Z,14.95
2018-04-28T06:42:55.416Z,14.94
2018-04-28T06:43:55.427Z,15.01
2018-04-28T06:44:55.395Z,14.94
2018-04-28T06:45:55.386Z,14.99
2018-04-28T06:46:55.360Z,15.02
2018-04-28T06:47:55.351Z,14.99
2018-04-28T06:48:55.072Z,14.99
2018-04-28T06:49:55.325Z,14.95
2018-04-28T06:50:55.312Z,15.06
2018-04-28T06:51:55.558Z,15.08
2018-04-28T06:52:55.017Z,15.13
2018-04-28T06:53:55.275Z,15.13
2018-04-28T06:54:54.994Z,15.24
2018-04-28T06:55:55.248Z,15.21
2018-04-28T06:56:54.973Z,15.15
2018-04-28T06:57:54.954Z,15.21
2018-04-28T06:58:55.474Z,15.05
2018-04-28T06:59:55.195Z,15.08
2018-04-28T07:00:55.443Z,15.13
2018-04-28T07:01:55.437Z,15.15
2018-04-28T07:02:55.155Z,15.17
2018-04-28T07:03:55.406Z,15.11
2018-04-28T07:04:55.395Z,15.24
2018-04-28T07:05:55.115Z,15.28
2018-04-28T07:06:55.370Z,15.21
2018-04-28T07:07:55.092Z,15.3
2018-04-28T07:08:55.341Z,15.33
2018-04-28T07:09:55.066Z,15.51
2018-04-28T07:10:54.908Z,15.54
2018-04-28T07:11:55.037Z,15.59
2018-04-28T07:12:55.024Z,15.57
2018-04-28T07:13:55.281Z,15.57
2018-04-28T07:14:55.013Z,15.57
2018-04-28T07:15:54.993Z,15.48
2018-04-28T07:16:55.247Z,15.36
2018-04-28T07:17:54.710Z,15.36
2018-04-28T07:18:54.948Z,15.35
2018-04-28T07:19:55.211Z,15.35
2018-04-28T07:20:54.937Z,15.38
2018-04-28T07:21:54.914Z,15.41
2018-04-28T07:22:54.900Z,15.45
2018-04-28T07:23:54.622Z,15.48
2018-04-28T07:24:55.138Z,15.57
2018-04-28T07:25:54.862Z,15.6
2018-04-28T07:26:54.852Z,15.6
2018-04-28T07:27:54.840Z,15.66
2018-04-28T07:28:54.826Z,15.72
2018-04-28T07:29:55.079Z,15.81
2018-04-28T07:30:54.796Z,15.88
2018-04-28T07:31:54.784Z,16.01
2018-04-28T07:32:55.044Z,16.07
2018-04-28T07:33:54.789Z,16.09
2018-04-28T07:34:54.484Z,16.11
2018-04-28T07:35:54.472Z,16.22
2018-04-28T07:36:54.982Z,16.31
2018-04-28T07:37:54.448Z,16.33
2018-04-28T07:38:54.965Z,16.35
2018-04-28T07:39:54.951Z,16.42
2018-04-28T07:40:54.936Z,16.34
2018-04-28T07:41:54.667Z,16.31
2018-04-28T07:42:54.660Z,16.26
2018-04-28T07:43:54.377Z,16.27
2018-04-28T07:44:54.894Z,16.26
2018-04-28T07:45:54.621Z,16.18
2018-04-28T07:46:54.608Z,16.23
2018-04-28T07:47:54.857Z,16.07
2018-04-28T07:48:54.586Z,16
2018-04-28T07:49:54.570Z,16.03
2018-04-28T07:50:54.839Z,16.04
2018-04-28T07:51:54.284Z,15.99
2018-04-28T07:52:54.799Z,15.96
2018-04-28T07:53:54.793Z,15.85
2018-04-28T07:54:54.509Z,15.79
2018-04-28T07:55:54.506Z,15.78
2018-04-28T07:56:54.494Z,15.76
2018-04-28T07:57:54.423Z,15.82
2018-04-28T07:58:54.469Z,15.89
2018-04-28T07:59:54.465Z,15.78
2018-04-28T08:00:54.709Z,15.84
2018-04-28T08:01:54.427Z,15.92
2018-04-28T08:02:54.418Z,16.04
2018-04-28T08:03:54.410Z,16.04
2018-04-28T08:04:54.400Z,16.09
2018-04-28T08:05:54.394Z,16
2018-04-28T08:06:54.652Z,16.07
2018-04-28T08:07:54.421Z,16.12
2018-04-28T08:08:54.084Z,16.15
2018-04-28T08:09:54.609Z,16.22
2018-04-28T08:10:54.328Z,16.25
2018-04-28T08:11:54.307Z,16.14
2018-04-28T08:12:54.644Z,16.15
2018-04-28T08:13:54.560Z,16.18
2018-04-28T08:14:54.017Z,16.3
2018-04-28T08:15:54.317Z,16.52
2018-04-28T08:16:54.257Z,16.52
2018-04-28T08:17:54.556Z,16.56
2018-04-28T08:18:54.501Z,16.7
2018-04-28T08:19:53.954Z,16.68
2018-04-28T08:20:54.488Z,16.78
2018-04-28T08:21:54.470Z,17.06
2018-04-28T08:22:54.192Z,17.04
2018-04-28T08:23:54.186Z,17.1
2018-04-28T08:24:54.179Z,17.1
2018-04-28T08:25:54.416Z,17.07
2018-04-28T08:26:54.240Z,17.04
2018-04-28T08:27:54.138Z,17.08
2018-04-28T08:28:54.389Z,17
2018-04-28T08:29:54.116Z,16.96
2018-04-28T08:30:54.113Z,16.85
2018-04-28T08:31:54.098Z,16.86
2018-04-28T08:32:54.080Z,16.95
2018-04-28T08:33:54.077Z,16.78
2018-04-28T08:34:53.801Z,16.77
2018-04-28T08:35:54.057Z,16.8
2018-04-28T08:36:54.458Z,16.7
2018-04-28T08:37:54.294Z,16.63
2018-04-28T08:38:54.024Z,16.55
2018-04-28T08:39:54.017Z,16.42
2018-04-28T08:40:54.008Z,16.5
2018-04-28T08:41:53.990Z,16.49
2018-04-28T08:42:53.716Z,16.45
2018-04-28T08:43:53.972Z,16.53
2018-04-28T08:44:53.961Z,16.62
2018-04-28T08:45:53.949Z,16.71
2018-04-28T08:46:53.934Z,16.75
2018-04-28T08:47:53.926Z,16.74
2018-04-28T08:48:53.917Z,16.75
2018-04-28T08:49:53.843Z,16.89
2018-04-28T08:50:53.890Z,16.77
2018-04-28T08:51:54.145Z,16.7
2018-04-28T08:52:53.605Z,16.65
2018-04-28T08:53:54.079Z,16.9
2018-04-28T08:54:53.849Z,16.67
2018-04-28T08:55:53.585Z,16.88
2018-04-28T08:56:54.104Z,17.06
2018-04-28T08:57:53.553Z,17.1
2018-04-28T08:58:53.545Z,17.23
2018-04-28T08:59:53.804Z,17.4
2018-04-28T09:00:54.062Z,17.46
2018-04-28T09:01:53.776Z,17.66
2018-04-28T09:02:53.768Z,17.84
2018-04-28T09:03:53.916Z,17.95
2018-04-28T09:04:53.745Z,17.87
2018-04-28T09:05:54.015Z,17.89
2018-04-28T09:06:53.726Z,17.92
2018-04-28T09:07:53.455Z,17.81
2018-04-28T09:08:53.711Z,17.78
2018-04-28T09:09:53.695Z,17.73
2018-04-28T09:10:53.958Z,17.76
2018-04-28T09:11:53.944Z,17.79
2018-04-28T09:12:53.661Z,17.88
2018-04-28T09:13:53.657Z,17.78
2018-04-28T09:14:53.385Z,17.84
2018-04-28T09:15:53.918Z,17.87
2018-04-28T09:16:53.635Z,17.82
2018-04-28T09:17:53.621Z,18.07
2018-04-28T09:18:53.612Z,18.07
2018-04-28T09:19:53.335Z,18.07
2018-04-28T09:20:53.867Z,18.19
2018-04-28T09:21:53.851Z,18.1
2018-04-28T09:22:53.842Z,17.95
2018-04-28T09:23:53.567Z,17.81
2018-04-28T09:24:53.557Z,17.7
2018-04-28T09:25:53.541Z,17.74
2018-04-28T09:26:53.563Z,17.74
2018-04-28T09:27:53.544Z,17.62
2018-04-28T09:28:53.522Z,17.67
2018-04-28T09:29:53.514Z,17.66
2018-04-28T09:30:53.501Z,17.79
2018-04-28T09:31:53.760Z,17.95
2018-04-28T09:32:53.769Z,18.07
2018-04-28T09:33:53.468Z,18.07
2018-04-28T09:34:53.462Z,18.17
2018-04-28T09:35:53.455Z,18.19
2018-04-28T09:36:53.443Z,18.29
2018-04-28T09:37:53.176Z,18.27
2018-04-28T09:38:53.689Z,18.22
2018-04-28T09:39:53.237Z,18.18
2018-04-28T09:40:53.422Z,18.18
2018-04-28T09:41:53.409Z,18.12
2018-04-28T09:42:53.388Z,18.17
2018-04-28T09:43:53.120Z,18.13
2018-04-28T09:44:53.630Z,18.19
2018-04-28T09:45:53.635Z,18.04
2018-04-28T09:46:53.632Z,17.87
2018-04-28T09:47:53.606Z,17.78
2018-04-28T09:48:53.340Z,17.71
2018-04-28T09:49:53.319Z,17.67
2018-04-28T09:50:53.310Z,17.5
2018-04-28T09:51:53.570Z,17.44
2018-04-28T09:52:53.555Z,17.48
2018-04-28T09:53:53.035Z,17.46
2018-04-28T09:54:53.286Z,17.54
2018-04-28T09:55:53.274Z,17.43
2018-04-28T09:56:52.986Z,17.36
2018-04-28T09:57:53.244Z,17.35
2018-04-28T09:58:53.250Z,17.36
2018-04-28T09:59:52.961Z,17.35
2018-04-28T10:00:53.215Z,17.32
2018-04-28T10:01:53.209Z,17.33
2018-04-28T10:02:53.472Z,17.29
2018-04-28T10:03:53.187Z,17.32
2018-04-28T10:04:52.918Z,17.35
2018-04-28T10:05:52.932Z,17.23
2018-04-28T10:06:52.894Z,17.26
2018-04-28T10:07:53.153Z,17.28
2018-04-28T10:08:53.142Z,17.15
2018-04-28T10:09:53.129Z,17.17
2018-04-28T10:10:53.385Z,17.18
2018-04-28T10:11:53.387Z,17.23
2018-04-28T10:12:53.491Z,17.26
2018-04-28T10:13:52.819Z,17.33
2018-04-28T10:14:53.073Z,17.28
2018-04-28T10:15:53.330Z,17.53
2018-04-28T10:16:53.053Z,17.69
2018-04-28T10:17:53.306Z,17.85
2018-04-28T10:18:52.780Z,17.91
2018-04-28T10:19:53.027Z,18
2018-04-28T10:20:53.361Z,17.97
2018-04-28T10:21:53.373Z,17.99
2018-04-28T10:22:53.331Z,18
2018-04-28T10:23:53.054Z,17.94
2018-04-28T10:24:52.797Z,18.07
2018-04-28T10:25:53.235Z,18.06
2018-04-28T10:26:52.957Z,18.07
2018-04-28T10:27:53.846Z,18.09
2018-04-28T10:28:52.948Z,18.07
2018-04-28T10:29:52.663Z,17.94
2018-04-28T10:30:52.682Z,18
2018-04-28T10:31:52.914Z,17.99
2018-04-28T10:32:53.167Z,18
2018-04-28T10:33:53.163Z,17.95
2018-04-28T10:34:52.873Z,18.13
2018-04-28T10:35:52.605Z,18.12
2018-04-28T10:36:52.901Z,18.13
2018-04-28T10:37:52.929Z,18.13
2018-04-28T10:38:52.588Z,18.19
2018-04-28T10:39:52.577Z,18.17
2018-04-28T10:40:52.844Z,17.94
2018-04-28T10:41:52.550Z,17.91
2018-04-28T10:42:52.800Z,17.82
2018-04-28T10:43:53.061Z,17.87
2018-04-28T10:44:52.785Z,17.84
2018-04-28T10:45:53.046Z,17.87
2018-04-28T10:46:52.765Z,17.81
2018-04-28T10:47:52.761Z,17.85
2018-04-28T10:48:53.490Z,17.85
2018-04-28T10:49:53.465Z,17.91
2018-04-28T10:50:52.936Z,17.84
2018-04-28T10:51:52.720Z,17.82
2018-04-28T10:52:52.970Z,17.74
2018-04-28T10:53:52.456Z,17.67
2018-04-28T10:54:53.008Z,17.66
2018-04-28T10:55:52.676Z,17.71
2018-04-28T10:56:52.667Z,17.67
2018-04-28T10:57:52.398Z,17.55
2018-04-28T10:58:52.646Z,17.51
2018-04-28T10:59:52.644Z,17.64
2018-04-28T11:00:52.365Z,17.55
2018-04-28T11:01:52.616Z,17.43
2018-04-28T11:02:52.873Z,17.48
2018-04-28T11:03:52.598Z,17.48
2018-04-28T11:04:52.591Z,17.46
2018-04-28T11:05:52.850Z,17.51
2018-04-28T11:06:52.831Z,17.69
2018-04-28T11:07:52.571Z,17.73
2018-04-28T11:08:52.816Z,17.76
2018-04-28T11:09:52.557Z,17.85
2018-04-28T11:10:52.531Z,17.87
2018-04-28T11:11:52.784Z,18.07
2018-04-28T11:12:52.512Z,18.07
2018-04-28T11:13:52.780Z,18.17
2018-04-28T11:14:52.227Z,18.34
2018-04-28T11:15:52.219Z,18.47
2018-04-28T11:16:52.484Z,18.58
2018-04-28T11:17:52.738Z,18.57
2018-04-28T11:18:52.720Z,18.27
2018-04-28T11:19:52.250Z,18.18
2018-04-28T11:20:52.699Z,18.28
2018-04-28T11:21:52.699Z,18.29
2018-04-28T11:22:52.422Z,18.28
2018-04-28T11:23:52.681Z,18.4
2018-04-28T11:24:52.664Z,18.29
2018-04-28T11:25:52.136Z,18.28
2018-04-28T11:26:52.118Z,18.34
2018-04-28T11:27:52.647Z,18.54
2018-04-28T11:28:52.367Z,18.61
2018-04-28T11:29:52.351Z,18.57
2018-04-28T11:30:52.088Z,18.49
2018-04-28T11:31:52.340Z,18.49
2018-04-28T11:32:52.443Z,18.58
2018-04-28T11:33:52.588Z,18.43
2018-04-28T11:34:52.583Z,18.42
2018-04-28T11:35:52.576Z,18.39
2018-04-28T11:36:52.032Z,18.28
2018-04-28T11:37:52.027Z,18.19
2018-04-28T11:38:52.282Z,18.21
2018-04-28T11:39:52.274Z,18.25
2018-04-28T11:40:52.263Z,18.28
2018-04-28T11:41:52.254Z,18.29
2018-04-28T11:42:52.511Z,18.36
2018-04-28T11:43:52.501Z,18.12
2018-04-28T11:44:51.967Z,18.27
2018-04-28T11:45:52.217Z,18.22
2018-04-28T11:46:52.223Z,18.24
2018-04-28T11:47:52.211Z,18.29
2018-04-28T11:48:52.499Z,18.28
2018-04-28T11:49:52.189Z,18.57
2018-04-28T11:50:52.448Z,18.65
2018-04-28T11:51:51.913Z,18.79
2018-04-28T11:52:51.903Z,18.83
2018-04-28T11:53:52.180Z,19.17
2018-04-28T11:54:52.615Z,19.69
2018-04-28T11:55:52.179Z,19.51
2018-04-28T11:56:52.147Z,19.66
2018-04-28T11:57:52.140Z,19.69
2018-04-28T11:58:52.519Z,19.57
2018-04-28T11:59:52.403Z,19.53
2018-04-28T12:00:52.127Z,19.38
2018-04-28T12:01:52.113Z,19.53
2018-04-28T12:02:51.831Z,19.42
2018-04-28T12:03:51.813Z,19.39
2018-04-28T12:04:52.104Z,19.4
2018-04-28T12:05:52.666Z,19.15
2018-04-28T12:06:52.080Z,19.02
2018-04-28T12:07:52.321Z,19.1
2018-04-28T12:08:52.050Z,18.9
2018-04-28T12:09:52.056Z,18.92
2018-04-28T12:10:52.314Z,18.8
2018-04-28T12:11:52.035Z,18.73
2018-04-28T12:12:52.030Z,18.83
2018-04-28T12:13:52.032Z,19.1
2018-04-28T12:14:52.017Z,19.2
2018-04-28T12:15:52.006Z,19.42
2018-04-28T12:16:51.997Z,19.8
2018-04-28T12:17:51.986Z,19.66
2018-04-28T12:18:52.250Z,19.93
2018-04-28T12:19:52.439Z,19.93
2018-04-28T12:20:52.241Z,19.7
2018-04-28T12:21:51.958Z,20.39
2018-04-28T12:22:51.962Z,20.91
2018-04-28T12:23:51.954Z,21.29
2018-04-28T12:24:51.946Z,21.54
2018-04-28T12:25:51.945Z,21.67
2018-04-28T12:26:51.666Z,21.75
2018-04-28T12:27:51.958Z,21.64
2018-04-28T12:28:51.657Z,21.41
2018-04-28T12:29:51.708Z,21.35
2018-04-28T12:30:51.648Z,20.91
2018-04-28T12:31:51.649Z,20.72
2018-04-28T12:32:51.915Z,20.39
2018-04-28T12:33:51.905Z,19.95
2018-04-28T12:34:51.893Z,19.8
2018-04-28T12:35:51.944Z,19.65
2018-04-28T12:36:51.624Z,19.47
2018-04-28T12:37:51.887Z,19.35
2018-04-28T12:38:51.883Z,19.08
2018-04-28T12:39:51.870Z,18.97
2018-04-28T12:40:51.869Z,18.92
2018-04-28T12:41:52.128Z,18.76
2018-04-28T12:42:51.850Z,18.65
2018-04-28T12:43:51.846Z,18.61
2018-04-28T12:44:51.838Z,18.58
2018-04-28T12:45:51.566Z,18.62
2018-04-28T12:46:51.831Z,18.74
2018-04-28T12:47:52.087Z,18.8
2018-04-28T12:48:51.811Z,18.82
2018-04-28T12:49:51.803Z,18.87
2018-04-28T12:50:52.194Z,18.95
2018-04-28T12:51:51.795Z,18.82
2018-04-28T12:52:51.780Z,18.95
2018-04-28T12:53:51.782Z,18.95
2018-04-28T12:54:51.497Z,18.83